Time;durP1;ratioP1;P1;durP2;ratioP2;P2;SDS_P1;SDS_P2;PMS_P1;PMS_P2;Temp;Humidity;BMP_temperature;BMP_pressure;BME280_temperature;BME280_humidity;BME280_pressure;Samples;Min_cycle;Max_cycle;Signal;HPM_P1;HPM_P2
2021/09/08 00:02:05;;;;;;;8.30;3.92;;;;;;;10.10;73.67;97351.63;5032692;28;20041;-55
2021/09/08 00:04:30;;;;;;;5.18;3.40;;;;;;;10.15;73.76;97348.91;5032745;28;20021;-56
2021/09/08 00:06:56;;;;;;;6.78;3.45;;;;;;;10.17;73.13;97354.09;5032688;28;20021;-57
2021/09/08 00:09:21;;;;;;;5.05;3.55;;;;;;;10.19;72.44;97355.78;5032647;28;20045;-55
2021/09/08 00:11:47;;;;;;;4.88;3.10;;;;;;;10.23;72.74;97353.94;5032713;28;20102;-57
2021/09/08 00:14:13;;;;;;;6.68;3.65;;;;;;;10.27;72.63;97354.72;5036649;28;20041;-56
2021/09/08 00:16:39;;;;;;;6.35;3.50;;;;;;;10.32;72.86;97358.94;5036398;28;20378;-57
2021/09/08 00:19:05;;;;;;;9.57;3.45;;;;;;;10.42;72.59;97359.56;5036444;28;20026;-57
2021/09/08 00:21:30;;;;;;;6.72;3.10;;;;;;;10.48;71.85;97359.47;5036293;28;20369;-57
2021/09/08 00:23:56;;;;;;;9.60;3.95;;;;;;;10.53;72.10;97364.59;5036319;28;20057;-58
2021/09/08 00:26:21;;;;;;;4.25;2.85;;;;;;;10.57;71.64;97363.59;5036212;28;20502;-55
2021/09/08 00:28:47;;;;;;;4.28;2.95;;;;;;;10.60;71.08;97365.31;5036195;28;20029;-55
2021/09/08 00:31:12;;;;;;;7.20;3.38;;;;;;;10.60;71.25;97381.84;5036226;28;20442;-58
2021/09/08 00:33:38;;;;;;;8.90;3.80;;;;;;;10.67;71.21;97376.47;5036140;28;20099;-55
2021/09/08 00:36:04;;;;;;;4.47;3.30;;;;;;;10.66;70.92;97374.75;5036038;28;20013;-57
2021/09/08 00:38:29;;;;;;;4.03;3.13;;;;;;;10.65;70.89;97378.28;5036058;28;20026;-58
2021/09/08 00:40:56;;;;;;;6.00;3.03;;;;;;;10.73;71.77;97368.47;5035899;28;20027;-55
2021/09/08 00:43:22;;;;;;;8.07;3.65;;;;;;;10.75;70.99;97369.31;5036026;28;20049;-54
2021/09/08 00:45:55;;;;;;;8.52;3.83;;;;;;;10.79;71.28;97370.94;5035903;28;20098;-57
2021/09/08 00:48:21;;;;;;;6.15;3.17;;;;;;;10.82;71.60;97360.38;5035802;28;20029;-57
2021/09/08 00:50:48;;;;;;;4.75;3.30;;;;;;;10.88;71.80;97356.75;5035883;28;20034;-56
2021/09/08 00:53:18;;;;;;;6.32;3.55;;;;;;;10.80;72.62;97358.69;5035867;28;20029;-54
2021/09/08 00:55:45;;;;;;;7.07;2.40;;;;;;;10.76;73.43;97346.59;5035847;28;20040;-57
2021/09/08 00:58:11;;;;;;;10.60;3.45;;;;;;;10.82;73.24;97351.66;5035522;28;20392;-57
2021/09/08 01:00:37;;;;;;;10.23;4.10;;;;;;;10.80;73.46;97346.47;5035548;28;20471;-56
2021/09/08 01:03:03;;;;;;;8.60;3.33;;;;;;;10.84;73.25;97350.72;5035484;28;20088;-59
2021/09/08 01:05:28;;;;;;;6.47;3.65;;;;;;;10.94;73.13;97348.75;5035514;28;20067;-58
2021/09/08 01:07:56;;;;;;;5.50;3.53;;;;;;;10.96;73.14;97351.31;5035562;28;20108;-56
2021/09/08 01:10:22;;;;;;;4.90;3.50;;;;;;;10.97;72.94;97346.03;5035355;28;20560;-58
2021/09/08 01:12:48;;;;;;;4.38;2.90;;;;;;;11.04;72.74;97348.47;5035330;28;20030;-55
2021/09/08 01:15:14;;;;;;;10.02;3.70;;;;;;;11.06;72.90;97351.91;5035400;28;20061;-57
2021/09/08 01:17:41;;;;;;;4.72;2.85;;;;;;;11.13;72.57;97348.22;5035552;28;20060;-57
2021/09/08 01:20:07;;;;;;;5.50;3.58;;;;;;;11.21;72.13;97355.88;5035508;28;20053;-56
2021/09/08 01:22:41;;;;;;;7.10;3.38;;;;;;;11.21;72.14;97346.28;5035147;28;20037;-59
2021/09/08 01:25:07;;;;;;;4.85;3.28;;;;;;;11.27;71.97;97352.22;5033038;28;20384;-57
2021/09/08 01:27:33;;;;;;;5.28;3.28;;;;;;;11.25;71.81;97345.28;5035236;28;20528;-56
2021/09/08 01:29:58;;;;;;;8.82;2.88;;;;;;;11.24;71.86;97348.81;5035173;28;20104;-54
2021/09/08 01:32:33;;;;;;;5.85;3.45;;;;;;;11.30;71.66;97350.38;5034985;28;20056;-55
2021/09/08 01:34:59;;;;;;;7.03;3.58;;;;;;;11.33;71.49;97347.69;5035056;28;20036;-57
2021/09/08 01:37:24;;;;;;;3.78;3.25;;;;;;;11.26;71.42;97348.75;5035044;28;20033;-57
2021/09/08 01:39:50;;;;;;;6.18;3.30;;;;;;;11.24;71.69;97340.09;5035210;28;20037;-58
2021/09/08 01:42:15;;;;;;;10.90;3.35;;;;;;;11.31;72.23;97338.13;5034890;28;20030;-58
2021/09/08 01:44:41;;;;;;;6.25;3.70;;;;;;;11.34;71.75;97331.06;5034834;28;20030;-55
2021/09/08 01:47:07;;;;;;;3.72;3.03;;;;;;;11.36;71.73;97334.50;5034700;28;20021;-58
2021/09/08 01:49:32;;;;;;;5.82;2.80;;;;;;;11.37;71.67;97330.97;5034670;28;20027;-57
2021/09/08 01:51:57;;;;;;;4.15;3.15;;;;;;;11.32;71.43;97329.41;5034593;28;20025;-57
2021/09/08 01:54:23;;;;;;;5.93;3.20;;;;;;;11.33;71.54;97328.47;5034729;28;20025;-58
2021/09/08 01:56:48;;;;;;;5.05;2.88;;;;;;;11.32;72.22;97332.84;5034565;28;20083;-57
2021/09/08 01:59:14;;;;;;;7.22;3.35;;;;;;;11.31;72.10;97335.50;5034291;28;20513;-58
2021/09/08 02:01:39;;;;;;;5.57;3.33;;;;;;;11.30;71.62;97332.06;5034635;28;20029;-57
2021/09/08 02:04:05;;;;;;;6.28;3.42;;;;;;;11.33;71.57;97331.09;5034626;28;20022;-57
2021/09/08 02:06:31;;;;;;;9.45;3.58;;;;;;;11.41;71.37;97330.88;5034475;28;20017;-57
2021/09/08 02:08:59;;;;;;;7.10;2.92;;;;;;;11.33;70.93;97331.97;5034346;28;20364;-57
2021/09/08 02:11:25;;;;;;;4.88;3.50;;;;;;;11.25;71.12;97329.56;5034266;28;20082;-57
2021/09/08 02:13:51;;;;;;;7.32;3.38;;;;;;;11.22;71.35;97326.16;5034253;28;20021;-54
2021/09/08 02:16:20;;;;;;;5.50;3.33;;;;;;;11.20;71.71;97317.50;5034256;28;20529;-58
2021/09/08 02:18:46;;;;;;;5.47;3.10;;;;;;;11.26;71.69;97322.56;5034164;28;20029;-58
2021/09/08 02:21:11;;;;;;;11.25;3.40;;;;;;;11.30;71.34;97323.34;5034114;28;20033;-58
2021/09/08 02:23:37;;;;;;;6.10;3.70;;;;;;;11.29;71.38;97327.69;5034044;28;20502;-56
2021/09/08 02:26:03;;;;;;;8.85;3.15;;;;;;;11.30;71.29;97321.59;5034023;28;20101;-56
2021/09/08 02:28:28;;;;;;;4.97;3.45;;;;;;;11.27;70.78;97320.78;5034051;28;20484;-56
2021/09/08 02:30:54;;;;;;;5.53;3.05;;;;;;;11.24;70.96;97316.50;5033952;28;20076;-58
2021/09/08 02:33:20;;;;;;;5.28;3.08;;;;;;;11.25;71.26;97313.84;5033780;28;20117;-57
2021/09/08 02:35:45;;;;;;;5.32;3.00;;;;;;;11.16;71.25;97310.59;5033463;28;20117;-56
2021/09/08 02:38:11;;;;;;;4.72;3.22;;;;;;;11.15;71.56;97314.13;5033736;28;20057;-56
2021/09/08 02:40:36;;;;;;;7.28;3.58;;;;;;;11.13;71.37;97308.94;5033741;28;20048;-57
2021/09/08 02:43:02;;;;;;;8.20;3.17;;;;;;;11.16;71.53;97305.38;5033757;28;20029;-57
2021/09/08 02:45:28;;;;;;;5.45;3.10;;;;;;;11.19;71.38;97311.41;5033762;28;20380;-57
2021/09/08 02:47:53;;;;;;;6.03;3.22;;;;;;;11.24;71.63;97308.66;5033594;28;20375;-57
2021/09/08 02:50:19;;;;;;;5.72;3.28;;;;;;;11.23;70.90;97306.94;5033680;28;20029;-58
2021/09/08 02:52:44;;;;;;;7.97;3.45;;;;;;;11.19;71.37;97310.53;5033572;28;20036;-57
2021/09/08 02:55:10;;;;;;;5.43;3.25;;;;;;;11.18;71.40;97307.06;5033477;28;20022;-59
2021/09/08 02:57:36;;;;;;;7.40;3.20;;;;;;;11.15;71.68;97308.91;5033377;28;20029;-59
2021/09/08 03:00:02;;;;;;;4.82;3.38;;;;;;;11.24;71.85;97308.66;5033164;28;20049;-59
2021/09/08 03:02:28;;;;;;;5.80;3.38;;;;;;;11.21;71.65;97308.72;5033615;28;20017;-57
2021/09/08 03:04:53;;;;;;;8.38;3.42;;;;;;;11.25;71.89;97307.75;5033331;28;20490;-56
2021/09/08 03:07:19;;;;;;;6.45;3.33;;;;;;;11.23;71.37;97310.41;5033392;28;20033;-57
2021/09/08 03:09:44;;;;;;;5.30;3.13;;;;;;;11.19;71.18;97311.41;5033256;28;20531;-58
2021/09/08 03:12:10;;;;;;;7.28;3.50;;;;;;;11.16;71.53;97305.38;5033252;28;20044;-59
2021/09/08 03:14:36;;;;;;;4.32;3.05;;;;;;;11.20;71.47;97317.50;5032204;28;20110;-59
2021/09/08 03:17:01;;;;;;;8.07;2.95;;;;;;;11.16;71.58;97306.25;5033291;28;20422;-56
2021/09/08 03:19:27;;;;;;;6.32;3.40;;;;;;;11.15;71.62;97311.53;5033262;28;20101;-55
2021/09/08 03:21:52;;;;;;;7.35;3.75;;;;;;;11.15;71.81;97311.53;5033220;28;20033;-58
2021/09/08 03:24:18;;;;;;;8.35;3.83;;;;;;;11.11;71.67;97310.78;5033175;28;20040;-58
2021/09/08 03:26:43;;;;;;;8.70;3.67;;;;;;;11.12;71.89;97307.25;5033086;28;20105;-56
2021/09/08 03:29:09;;;;;;;10.32;3.70;;;;;;;11.14;71.86;97302.81;5033155;28;20030;-59
2021/09/08 03:31:34;;;;;;;11.13;3.72;;;;;;;11.17;71.49;97304.50;5032970;28;20037;-56
2021/09/08 03:34:00;;;;;;;8.55;3.72;;;;;;;11.19;71.14;97305.28;5033096;28;20045;-59
2021/09/08 03:36:25;;;;;;;5.38;3.17;;;;;;;11.13;70.66;97306.31;5032979;28;20108;-58
2021/09/08 03:38:51;;;;;;;9.45;3.78;;;;;;;11.11;70.78;97311.59;5032954;28;20064;-57
2021/09/08 03:41:17;;;;;;;6.32;3.38;;;;;;;11.07;71.13;97303.88;5032999;28;20034;-58
2021/09/08 03:43:42;;;;;;;9.68;3.60;;;;;;;11.06;70.64;97307.41;5032871;28;20117;-57
2021/09/08 03:46:08;;;;;;;7.63;4.00;;;;;;;11.04;70.80;97307.44;5032860;28;20022;-56
2021/09/08 03:48:34;;;;;;;6.82;3.95;;;;;;;11.05;69.99;97303.06;5036188;28;20487;-57
2021/09/08 03:51:00;;;;;;;11.10;3.25;;;;;;;10.98;70.19;97311.09;5036904;28;20434;-58
2021/09/08 03:53:26;;;;;;;8.13;3.53;;;;;;;10.90;70.46;97307.84;5036938;28;20112;-58
2021/09/08 03:55:52;;;;;;;6.63;3.83;;;;;;;10.84;70.49;97310.63;5037037;28;20527;-57
2021/09/08 03:58:18;;;;;;;10.93;3.88;;;;;;;10.79;70.48;97310.75;5036506;28;20376;-58
2021/09/08 04:00:43;;;;;;;12.50;4.30;;;;;;;10.75;70.65;97316.97;5036810;28;20025;-57
2021/09/08 04:03:09;;;;;;;6.15;3.83;;;;;;;10.77;70.98;97317.75;5036792;28;20107;-60
2021/09/08 04:05:35;;;;;;;6.88;3.80;;;;;;;10.83;70.60;97321.97;5036848;28;20121;-58
2021/09/08 04:08:01;;;;;;;9.77;4.10;;;;;;;10.81;70.05;97322.00;5036615;28;20515;-53
2021/09/08 04:10:26;;;;;;;12.55;4.18;;;;;;;10.79;70.23;97329.06;5036585;28;20487;-57
2021/09/08 04:12:52;;;;;;;10.80;4.20;;;;;;;10.76;70.12;97320.41;5036511;28;20072;-58
2021/09/08 04:15:18;;;;;;;7.80;4.35;;;;;;;10.79;69.92;97325.56;5036483;28;20017;-57
2021/09/08 04:17:43;;;;;;;8.85;4.22;;;;;;;10.80;70.07;97327.28;5036437;28;20072;-58
2021/09/08 04:20:09;;;;;;;10.70;4.55;;;;;;;10.76;69.70;97330.88;5036361;28;20422;-57
2021/09/08 04:22:35;;;;;;;6.38;3.75;;;;;;;10.78;70.17;97332.59;5036342;28;20028;-58
2021/09/08 04:25:02;;;;;;;5.90;3.50;;;;;;;10.83;69.43;97327.19;5036205;28;20021;-56
2021/09/08 04:27:27;;;;;;;10.55;3.78;;;;;;;10.84;69.89;97326.31;5036289;28;20501;-56
2021/09/08 04:29:53;;;;;;;10.07;3.78;;;;;;;10.91;69.46;97325.25;5036288;28;20025;-58
2021/09/08 04:32:18;;;;;;;10.55;3.90;;;;;;;10.96;69.30;97327.75;5036075;28;20526;-57
2021/09/08 04:34:44;;;;;;;8.27;4.15;;;;;;;11.16;69.44;97331.56;5036104;28;20025;-59
2021/09/08 04:37:10;;;;;;;7.43;4.03;;;;;;;11.52;69.10;97326.19;5036111;28;20083;-57
2021/09/08 04:39:35;;;;;;;9.93;3.58;;;;;;;12.03;67.10;97329.03;5036151;28;20017;-58
2021/09/08 04:42:01;;;;;;;5.80;2.88;;;;;;;12.51;66.57;97324.03;5036067;28;20371;-59
2021/09/08 04:44:26;;;;;;;5.13;2.97;;;;;;;12.99;65.81;97322.44;5035920;28;20033;-59
2021/09/08 04:46:52;;;;;;;4.57;2.80;;;;;;;13.66;64.15;97334.09;5035862;28;20601;-58
2021/09/08 04:49:18;;;;;;;6.63;3.13;;;;;;;14.42;62.14;97343.44;5035823;28;20388;-59
2021/09/08 04:51:43;;;;;;;6.85;3.00;;;;;;;15.15;59.87;97335.97;5035718;28;20037;-58
2021/09/08 04:54:09;;;;;;;7.90;2.92;;;;;;;15.91;57.43;97342.28;5035830;28;20022;-59
2021/09/08 04:56:36;;;;;;;7.70;2.78;;;;;;;16.54;55.53;97340.19;5035820;28;20032;-59
2021/09/08 04:59:01;;;;;;;8.80;2.80;;;;;;;17.20;54.90;97339.56;5035181;28;20045;-59
2021/09/08 05:01:27;;;;;;;3.45;2.15;;;;;;;18.04;53.83;97331.59;5035629;28;20360;-59
2021/09/08 05:03:53;;;;;;;5.20;2.70;;;;;;;18.87;51.02;97330.44;5035644;28;20383;-58
2021/09/08 05:06:18;;;;;;;5.43;2.30;;;;;;;19.70;49.41;97334.31;5035711;28;20026;-58
2021/09/08 05:08:45;;;;;;;6.00;2.38;;;;;;;20.47;46.47;97328.66;5035454;28;20528;-59
2021/09/08 05:11:11;;;;;;;8.68;1.90;;;;;;;21.21;45.58;97329.03;5035525;28;20018;-59
2021/09/08 05:13:37;;;;;;;5.95;2.13;;;;;;;21.93;43.97;97328.53;5035417;28;20112;-59
2021/09/08 05:16:02;;;;;;;3.85;2.13;;;;;;;22.59;43.36;97333.53;5035422;28;20120;-58
2021/09/08 05:18:28;;;;;;;3.33;2.35;;;;;;;23.45;42.90;97321.72;5035459;28;20110;-59
2021/09/08 05:20:54;;;;;;;3.92;2.25;;;;;;;24.36;41.20;97328.78;5035441;28;20018;-58
2021/09/08 05:23:19;;;;;;;4.55;2.50;;;;;;;25.15;39.72;97323.22;5035250;28;20025;-59
2021/09/08 05:25:45;;;;;;;4.03;2.33;;;;;;;25.68;38.17;97332.13;5035175;28;20105;-59
2021/09/08 05:28:11;;;;;;;4.55;2.28;;;;;;;26.36;37.33;97327.94;5035192;28;20028;-60
2021/09/08 05:30:37;;;;;;;7.70;2.90;;;;;;;26.36;35.86;97321.72;5035177;28;20030;-58
2021/09/08 05:33:03;;;;;;;4.82;2.22;;;;;;;26.44;35.46;97327.25;5035011;28;20437;-58
2021/09/08 05:35:28;;;;;;;7.53;2.03;;;;;;;26.45;36.30;97328.09;5034969;28;20021;-59
2021/09/08 05:37:54;;;;;;;6.55;2.70;;;;;;;25.97;35.93;97325.16;5034985;28;20026;-58
2021/09/08 05:40:19;;;;;;;6.05;2.45;;;;;;;25.53;36.36;97326.25;5034997;28;20091;-58
2021/09/08 05:42:45;;;;;;;3.90;2.10;;;;;;;24.92;36.80;97330.56;5034964;28;20075;-59
2021/09/08 05:45:11;;;;;;;8.43;2.15;;;;;;;25.08;37.85;97332.78;5034913;28;20045;-59
2021/09/08 05:47:36;;;;;;;6.10;2.78;;;;;;;25.64;35.84;97321.81;5034817;28;20041;-59
2021/09/08 05:50:02;;;;;;;5.15;2.50;;;;;;;25.98;34.97;97322.34;5034719;28;20043;-59
2021/09/08 05:52:28;;;;;;;3.38;2.20;;;;;;;26.14;34.99;97326.31;5034678;28;20079;-58
2021/09/08 05:54:54;;;;;;;4.93;2.25;;;;;;;26.26;35.27;97327.06;5034630;28;20418;-58
2021/09/08 05:57:19;;;;;;;4.22;2.30;;;;;;;25.90;34.84;97321.31;5034568;28;20025;-58
2021/09/08 05:59:45;;;;;;;4.25;2.45;;;;;;;25.59;36.32;97323.03;5033196;28;20050;-58
2021/09/08 06:02:10;;;;;;;6.65;2.40;;;;;;;25.48;36.66;97317.75;5034480;28;20076;-58
2021/09/08 06:04:36;;;;;;;3.42;2.15;;;;;;;25.38;37.74;97323.09;5034541;28;20424;-59
2021/09/08 06:07:02;;;;;;;5.47;2.50;;;;;;;25.29;37.15;97326.53;5034052;28;20522;-58
2021/09/08 06:09:27;;;;;;;4.78;2.10;;;;;;;25.04;36.29;97321.47;5034133;28;20036;-58
2021/09/08 06:11:56;;;;;;;6.80;1.98;;;;;;;24.33;36.55;97322.88;5033914;28;20486;-58
2021/09/08 06:14:22;;;;;;;6.15;2.17;;;;;;;23.89;36.64;97322.78;5034197;28;20237;-58
2021/09/08 06:16:48;;;;;;;9.60;2.25;;;;;;;23.34;37.35;97321.69;5034332;28;20072;-59
2021/09/08 06:19:13;;;;;;;3.63;2.17;;;;;;;22.61;39.16;97322.75;5034270;28;20053;-59
2021/09/08 06:21:39;;;;;;;4.40;2.03;;;;;;;22.13;40.72;97321.75;5034127;28;20460;-58
2021/09/08 06:24:05;;;;;;;5.07;2.47;;;;;;;21.50;41.69;97325.28;5034023;28;20029;-59
2021/09/08 06:26:31;;;;;;;7.03;2.05;;;;;;;20.57;42.97;97327.06;5033979;28;20033;-57
2021/09/08 06:28:57;;;;;;;4.13;2.10;;;;;;;19.94;44.98;97331.06;5034056;28;20379;-56
2021/09/08 06:31:23;;;;;;;3.17;2.10;;;;;;;19.69;45.59;97329.94;5033861;28;20033;-58
2021/09/08 06:33:50;;;;;;;2.60;1.92;;;;;;;19.46;46.43;97331.38;5034104;28;20056;-58
2021/09/08 06:36:16;;;;;;;6.93;2.10;;;;;;;19.22;47.08;97328.44;5033926;28;20104;-57
2021/09/08 06:38:41;;;;;;;4.57;2.08;;;;;;;18.84;47.43;97338.56;5033782;28;20108;-57
2021/09/08 06:41:07;;;;;;;4.47;2.10;;;;;;;18.54;49.41;97340.25;5033713;28;20471;-57
2021/09/08 06:43:33;;;;;;;9.05;2.35;;;;;;;18.36;48.89;97344.81;5032489;28;20491;-56
2021/09/08 06:45:58;;;;;;;2.60;1.95;;;;;;;18.18;48.98;97341.41;5033768;28;20400;-58
2021/09/08 06:48:24;;;;;;;2.90;2.00;;;;;;;18.13;50.31;97339.06;5033676;28;20021;-58
2021/09/08 06:50:49;;;;;;;4.93;2.50;;;;;;;18.08;51.15;97342.84;5033649;28;20022;-58
2021/09/08 06:53:16;;;;;;;3.10;1.88;;;;;;;18.28;50.41;97334.69;5033415;28;20037;-58
2021/09/08 06:55:41;;;;;;;6.15;2.08;;;;;;;17.99;50.82;97342.44;5033585;28;20049;-57
2021/09/08 06:58:07;;;;;;;6.75;1.75;;;;;;;17.72;50.43;97332.44;5033323;28;20143;-57
2021/09/08 07:00:33;;;;;;;6.97;2.80;;;;;;;17.83;51.63;97344.22;5033414;28;20032;-57
2021/09/08 07:02:59;;;;;;;2.30;1.95;;;;;;;17.72;51.49;97336.84;5033409;28;20022;-59
2021/09/08 07:05:24;;;;;;;4.13;2.35;;;;;;;17.96;50.75;97347.91;5033325;28;20372;-58
2021/09/08 07:07:50;;;;;;;4.07;2.17;;;;;;;18.23;52.24;97343.81;5033548;28;20014;-57
2021/09/08 07:10:16;;;;;;;5.05;1.90;;;;;;;18.53;50.06;97346.50;5033463;28;20021;-58
2021/09/08 07:12:41;;;;;;;4.13;2.50;;;;;;;18.85;49.64;97347.38;5033256;28;20602;-57
2021/09/08 07:15:07;;;;;;;6.07;2.10;;;;;;;19.10;48.79;97344.16;5033361;28;20025;-58
2021/09/08 07:17:33;;;;;;;3.63;1.90;;;;;;;18.83;48.65;97347.47;5033233;28;20021;-58
2021/09/08 07:19:58;;;;;;;5.65;2.10;;;;;;;18.99;51.46;97344.75;5033313;28;20056;-58
2021/09/08 07:22:24;;;;;;;3.60;2.20;;;;;;;19.38;48.84;97346.94;5032368;28;20025;-58
2021/09/08 07:24:49;;;;;;;4.90;2.10;;;;;;;19.52;48.13;97349.56;5033294;28;20018;-59
2021/09/08 07:27:15;;;;;;;6.60;1.98;;;;;;;19.56;48.32;97347.56;5033123;28;20038;-58
2021/09/08 07:29:40;;;;;;;7.55;2.10;;;;;;;19.47;47.90;97354.31;5033137;28;20088;-58
2021/09/08 07:32:08;;;;;;;4.50;2.10;;;;;;;19.54;47.58;97360.09;5031787;28;20030;-58
2021/09/08 07:34:34;;;;;;;5.85;2.00;;;;;;;19.75;46.87;97363.19;5033027;28;20490;-59
2021/09/08 07:37:00;;;;;;;6.47;2.00;;;;;;;19.64;46.99;97363.88;5033055;28;20030;-59
2021/09/08 07:39:25;;;;;;;5.05;2.40;;;;;;;19.14;48.46;97361.56;5033017;28;20534;-58
2021/09/08 07:41:51;;;;;;;5.50;2.13;;;;;;;19.03;47.76;97366.63;5033071;28;20022;-58
2021/09/08 07:44:16;;;;;;;9.68;2.15;;;;;;;19.04;48.74;97368.34;5033011;28;20025;-58
2021/09/08 07:46:42;;;;;;;7.22;2.50;;;;;;;18.87;50.32;97367.53;5033021;28;20125;-58
2021/09/08 07:49:08;;;;;;;4.10;2.10;;;;;;;19.01;49.54;97363.22;5032937;28;20033;-59
2021/09/08 07:51:33;;;;;;;4.35;2.45;;;;;;;19.12;48.03;97362.63;5032802;28;20447;-58
2021/09/08 07:53:59;;;;;;;2.92;2.00;;;;;;;19.19;48.99;97366.59;5032748;28;20113;-58
2021/09/08 07:56:25;;;;;;;5.82;2.70;;;;;;;19.14;47.95;97363.38;5032934;28;20029;-59
2021/09/08 07:58:51;;;;;;;4.53;2.05;;;;;;;19.23;48.68;97361.97;5032607;28;20041;-59
2021/09/08 08:01:17;;;;;;;3.58;2.13;;;;;;;19.48;48.11;97363.13;5032750;28;20033;-58
2021/09/08 08:03:42;;;;;;;3.17;1.85;;;;;;;19.70;49.15;97365.28;5032721;28;20108;-57
2021/09/08 08:06:08;;;;;;;7.03;1.80;;;;;;;19.67;47.32;97369.00;5032833;28;20024;-59
2021/09/08 08:08:33;;;;;;;4.43;1.60;;;;;;;19.72;47.00;97365.22;5032752;28;20056;-59
2021/09/08 08:10:59;;;;;;;6.35;2.38;;;;;;;19.61;46.96;97357.91;5032803;28;20080;-58
2021/09/08 08:13:25;;;;;;;5.47;2.10;;;;;;;19.60;46.49;97354.41;5032591;28;20017;-58
2021/09/08 08:15:51;;;;;;;6.55;1.88;;;;;;;19.79;47.55;97347.94;5032752;28;20132;-58
2021/09/08 08:18:16;;;;;;;7.80;1.90;;;;;;;19.81;47.70;97352.19;5032600;28;20384;-58
2021/09/08 08:20:42;;;;;;;7.60;2.58;;;;;;;19.93;47.46;97353.22;5032703;28;20051;-58
2021/09/08 08:23:08;;;;;;;3.05;1.98;;;;;;;20.12;47.66;97340.63;5032823;28;20436;-59
2021/09/08 08:25:34;;;;;;;6.95;2.00;;;;;;;20.20;45.78;97346.28;5032519;28;20026;-57
2021/09/08 08:28:02;;;;;;;6.78;1.95;;;;;;;20.20;46.36;97336.50;5032554;28;20054;-59
2021/09/08 08:30:28;;;;;;;3.58;1.98;;;;;;;20.08;45.50;97339.97;5032546;28;20056;-57
2021/09/08 08:32:54;;;;;;;2.70;1.92;;;;;;;19.87;46.73;97345.66;5032694;28;20036;-58
2021/09/08 08:35:20;;;;;;;5.00;1.88;;;;;;;20.00;46.58;97342.22;5036245;28;20025;-57
2021/09/08 08:37:46;;;;;;;2.35;1.77;;;;;;;20.10;45.74;97346.03;5036077;28;20379;-58
2021/09/08 08:40:12;;;;;;;7.10;2.28;;;;;;;20.12;47.45;97348.56;5036081;28;20056;-59
2021/09/08 08:42:39;;;;;;;4.05;1.67;;;;;;;20.25;45.00;97341.53;5036001;28;20029;-58
2021/09/08 08:45:07;;;;;;;7.65;2.55;;;;;;;20.44;45.29;97343.81;5035931;28;20033;-58
2021/09/08 08:47:34;;;;;;;3.90;1.98;;;;;;;20.36;45.72;97339.97;5036116;28;20506;-58
2021/09/08 08:50:01;;;;;;;4.18;1.92;;;;;;;20.44;45.43;97340.34;5035962;28;20021;-57
2021/09/08 08:52:26;;;;;;;4.63;2.42;;;;;;;20.51;45.14;97338.97;5035757;28;20079;-58
2021/09/08 08:54:52;;;;;;;3.00;1.70;;;;;;;20.17;43.85;97334.03;5035770;28;20021;-58
2021/09/08 08:57:19;;;;;;;4.38;2.05;;;;;;;20.20;44.01;97327.72;5035951;28;20406;-58
2021/09/08 08:59:46;;;;;;;3.03;1.42;;;;;;;20.23;43.49;97330.16;5035577;28;20048;-57
2021/09/08 09:02:31;;;;;;;4.53;1.95;;;;;;;20.29;43.31;97344.84;5035706;28;20052;-59
2021/09/08 09:05:00;;;;;;;3.22;1.98;;;;;;;19.98;44.71;97330.88;5035684;28;20446;-58
2021/09/08 09:07:25;;;;;;;4.07;1.38;;;;;;;19.87;44.50;97320.91;5035603;28;20068;-59
2021/09/08 09:09:55;;;;;;;3.05;1.58;;;;;;;19.80;44.40;97326.63;5035586;28;20064;-58
2021/09/08 09:12:32;;;;;;;4.03;2.05;;;;;;;19.90;44.89;97328.69;5035466;28;20060;-57
2021/09/08 09:14:59;;;;;;;5.57;1.67;;;;;;;19.99;45.93;97322.81;5035402;28;20034;-59
2021/09/08 09:17:30;;;;;;;2.30;1.52;;;;;;;20.14;44.70;97325.44;5035400;28;20086;-58
2021/09/08 09:19:56;;;;;;;3.10;1.80;;;;;;;19.87;45.60;97319.09;5035386;28;20022;-57
2021/09/08 09:22:38;;;;;;;4.40;1.70;;;;;;;19.95;46.04;97313.31;5035360;28;20558;-59
2021/09/08 09:25:05;;;;;;;6.15;2.03;;;;;;;20.29;46.42;97316.47;5035333;28;20120;-58
2021/09/08 09:27:45;;;;;;;4.40;1.27;;;;;;;20.17;45.04;97306.66;5035175;28;20025;-58
2021/09/08 09:30:14;;;;;;;3.10;1.75;;;;;;;20.17;45.79;97302.19;5035303;28;20041;-59
2021/09/08 09:32:43;;;;;;;3.80;1.77;;;;;;;20.13;46.93;97299.81;5035036;28;20104;-59
2021/09/08 09:35:10;;;;;;;3.88;1.67;;;;;;;20.30;45.72;97299.59;5035044;28;20025;-59
2021/09/08 09:37:43;;;;;;;2.20;1.55;;;;;;;20.52;44.51;97290.19;5035087;28;20026;-58
2021/09/08 09:40:09;;;;;;;6.35;1.98;;;;;;;20.49;44.71;97292.19;5035014;28;20029;-58
2021/09/08 09:42:37;;;;;;;6.03;1.80;;;;;;;20.64;45.22;97282.31;5034950;28;20033;-58
2021/09/08 09:45:05;;;;;;;2.88;1.95;;;;;;;20.87;43.88;97283.44;5033973;28;20029;-57
2021/09/08 09:47:34;;;;;;;4.65;1.95;;;;;;;20.95;43.80;97275.81;5034906;28;20041;-58
2021/09/08 09:50:00;;;;;;;4.30;1.45;;;;;;;20.92;43.93;97272.53;5034781;28;20048;-58
2021/09/08 09:52:26;;;;;;;5.30;1.92;;;;;;;20.92;44.58;97275.19;5034921;28;20029;-59
2021/09/08 09:54:52;;;;;;;3.70;1.67;;;;;;;20.98;45.23;97279.22;5034752;28;20044;-58
2021/09/08 09:57:18;;;;;;;7.85;1.70;;;;;;;20.95;43.92;97278.47;5034627;28;20377;-59
2021/09/08 09:59:44;;;;;;;5.45;1.80;;;;;;;20.96;44.31;97272.19;5034674;28;20049;-59
2021/09/08 10:02:10;;;;;;;11.07;1.90;;;;;;;21.05;45.20;97272.53;5034644;28;20028;-59
2021/09/08 10:04:35;;;;;;;3.15;1.70;;;;;;;21.28;44.62;97275.38;5034591;28;20475;-57
2021/09/08 10:07:05;;;;;;;3.45;1.52;;;;;;;21.43;44.05;97266.31;5034388;28;20068;-59
2021/09/08 10:09:33;;;;;;;2.78;1.42;;;;;;;21.66;42.40;97261.16;5034495;28;20651;-58
2021/09/08 10:12:01;;;;;;;4.10;1.58;;;;;;;21.87;41.46;97249.06;5034344;28;20021;-58
2021/09/08 10:14:30;;;;;;;2.20;1.40;;;;;;;22.04;41.65;97254.03;5034333;28;20018;-59
2021/09/08 10:17:01;;;;;;;3.42;2.17;;;;;;;22.06;41.45;97252.09;5034276;28;20379;-59
2021/09/08 10:19:28;;;;;;;3.50;1.65;;;;;;;21.88;40.50;97248.97;5034210;28;20021;-58
2021/09/08 10:22:03;;;;;;;3.00;1.45;;;;;;;21.74;40.38;97249.97;5034149;28;20032;-57
2021/09/08 10:24:29;;;;;;;4.65;1.40;;;;;;;21.36;43.79;97251.75;5034158;28;20547;-57
2021/09/08 10:26:55;;;;;;;7.47;2.45;;;;;;;21.38;43.70;97246.31;5034092;28;20105;-59
2021/09/08 10:29:27;;;;;;;2.25;1.63;;;;;;;21.34;43.14;97245.66;5034025;28;20022;-58
2021/09/08 10:31:54;;;;;;;2.92;1.45;;;;;;;21.22;44.32;97242.06;5033943;28;20094;-58
2021/09/08 10:34:21;;;;;;;5.28;1.60;;;;;;;21.21;43.80;97238.56;5033935;28;20079;-58
2021/09/08 10:36:47;;;;;;;4.95;1.75;;;;;;;21.39;45.28;97242.69;5033919;28;20026;-56
2021/09/08 10:39:18;;;;;;;2.88;1.60;;;;;;;21.49;45.05;97245.56;5034013;28;20025;-59
2021/09/08 10:41:51;;;;;;;6.35;1.73;;;;;;;21.54;42.87;97230.97;5033824;28;20351;-58
2021/09/08 10:44:19;;;;;;;5.03;1.95;;;;;;;21.51;43.98;97238.28;5033828;28;20075;-57
2021/09/08 10:46:50;;;;;;;4.70;1.73;;;;;;;21.61;44.08;97231.34;5033753;28;20111;-59
2021/09/08 10:49:49;;;;;;;3.83;1.45;;;;;;;21.78;42.19;97231.97;5033820;28;20048;-58
2021/09/08 10:52:35;;;;;;;2.63;1.55;;;;;;;21.63;42.04;97231.25;5021774;28;20514;-59
2021/09/08 10:55:01;;;;;;;3.58;1.77;;;;;;;21.51;42.48;97236.50;5033465;28;20052;-59
2021/09/08 10:57:42;;;;;;;4.50;1.67;;;;;;;21.50;43.08;97231.28;5033304;28;20471;-58
2021/09/08 11:00:11;;;;;;;2.70;1.63;;;;;;;21.47;43.94;97240.34;5033634;28;20034;-59
2021/09/08 11:02:43;;;;;;;3.53;1.90;;;;;;;21.52;43.16;97230.19;5033540;28;20472;-58
2021/09/08 11:05:10;;;;;;;5.40;1.63;;;;;;;21.54;44.74;97222.97;5033437;28;20032;-58
2021/09/08 11:07:43;;;;;;;4.28;1.73;;;;;;;21.69;44.21;97221.00;5033390;28;20108;-58
2021/09/08 11:10:10;;;;;;;4.47;1.70;;;;;;;21.77;42.55;97224.94;5032318;28;20127;-59
2021/09/08 11:12:54;;;;;;;2.88;1.67;;;;;;;21.83;42.40;97220.00;5033284;28;20026;-57
2021/09/08 11:15:36;;;;;;;6.15;1.77;;;;;;;21.76;42.39;97221.44;5033281;28;20383;-58
2021/09/08 11:18:05;;;;;;;4.55;1.60;;;;;;;21.79;42.36;97213.22;5033230;28;20029;-59
2021/09/08 11:20:32;;;;;;;3.22;1.63;;;;;;;21.94;41.20;97213.03;5033159;28;20547;-57
2021/09/08 11:23:03;;;;;;;1.98;1.45;;;;;;;22.03;41.44;97215.03;5033363;28;20025;-57
2021/09/08 11:25:34;;;;;;;3.67;1.73;;;;;;;22.18;41.53;97206.84;5033309;28;20032;-58
2021/09/08 11:28:01;;;;;;;5.80;1.30;;;;;;;22.43;42.42;97203.19;5033294;28;20026;-58
2021/09/08 11:30:38;;;;;;;5.00;1.58;;;;;;;22.71;40.17;97205.59;5033114;28;20025;-58
2021/09/08 11:33:12;;;;;;;3.72;1.63;;;;;;;22.86;38.41;97211.53;5032987;28;20513;-58